createdAt,value
2022-10-25T00:00:31.480Z,13.40
2022-10-25T00:02:59.195Z,13.50
2022-10-25T00:05:27.020Z,13.40
2022-10-25T00:07:54.723Z,13.40
2022-10-25T00:10:24.931Z,13.40
2022-10-25T00:12:53.608Z,13.30
2022-10-25T00:15:21.942Z,13.30
2022-10-25T00:17:51.800Z,13.20
2022-10-25T00:20:20.324Z,13.30
2022-10-25T00:22:48.296Z,13.30
2022-10-25T00:25:16.362Z,13.30
2022-10-25T00:27:44.109Z,13.30
2022-10-25T00:30:13.474Z,13.30
2022-10-25T00:32:41.174Z,13.20
2022-10-25T00:35:10.950Z,13.20
2022-10-25T00:37:38.739Z,13.20
2022-10-25T00:40:07.534Z,13.30
2022-10-25T00:42:35.388Z,13.30
2022-10-25T00:45:04.933Z,13.40
2022-10-25T00:47:43.577Z,13.30
2022-10-25T00:50:21.223Z,13.30
2022-10-25T00:52:52.433Z,13.30
2022-10-25T00:55:22.839Z,13.30
2022-10-25T00:57:55.082Z,13.40
2022-10-25T01:00:23.421Z,13.40
2022-10-25T01:02:51.789Z,13.40
2022-10-25T01:05:21.556Z,13.30
2022-10-25T01:07:49.497Z,13.30
2022-10-25T01:10:17.447Z,13.30
2022-10-25T01:12:47.507Z,13.30
2022-10-25T01:15:18.100Z,13.40
2022-10-25T01:17:55.260Z,13.40
2022-10-25T01:21:08.866Z,13.50
2022-10-25T01:23:55.729Z,13.50
2022-10-25T01:26:53.563Z,13.60
2022-10-25T01:29:37.880Z,13.70
2022-10-25T01:32:11.199Z,13.70
2022-10-25T01:34:46.570Z,13.70
2022-10-25T01:37:23.063Z,13.80
2022-10-25T01:39:56.793Z,13.70
2022-10-25T01:42:31.908Z,13.70
2022-10-25T01:45:09.846Z,13.70
2022-10-25T01:47:44.883Z,13.70
2022-10-25T01:50:15.919Z,13.70
2022-10-25T01:52:43.697Z,13.70
2022-10-25T01:55:14.310Z,13.60
2022-10-25T01:57:59.075Z,13.50
2022-10-25T02:00:27.997Z,13.60
2022-10-25T02:03:11.589Z,13.60
2022-10-25T02:05:48.637Z,13.60
2022-10-25T02:08:26.374Z,13.60
2022-10-25T02:11:02.310Z,13.60
2022-10-25T02:13:37.494Z,13.50
2022-10-25T02:16:10.304Z,13.50
2022-10-25T02:18:45.379Z,13.40
2022-10-25T02:21:14.834Z,13.40
2022-10-25T02:23:44.023Z,13.40
2022-10-25T02:26:12.474Z,13.30
2022-10-25T02:28:41.941Z,13.40
2022-10-25T02:31:12.660Z,13.40
2022-10-25T02:33:44.059Z,13.30
2022-10-25T02:36:15.814Z,13.40
2022-10-25T02:38:44.965Z,13.40
2022-10-25T02:41:13.391Z,13.40
2022-10-25T02:43:41.189Z,13.40
2022-10-25T02:46:11.229Z,13.50
2022-10-25T02:48:40.658Z,13.60
2022-10-25T02:51:10.222Z,13.60
2022-10-25T02:53:38.077Z,13.60
2022-10-25T02:56:07.554Z,13.70
2022-10-25T02:58:37.575Z,13.70
2022-10-25T03:01:05.988Z,13.70
2022-10-25T03:03:34.419Z,13.70
2022-10-25T03:06:03.978Z,13.70
2022-10-25T03:08:32.050Z,13.80
2022-10-25T03:11:00.146Z,13.80
2022-10-25T03:13:28.203Z,13.80
2022-10-25T03:15:55.962Z,13.80
2022-10-25T03:18:23.734Z,13.80
2022-10-25T03:20:51.446Z,13.80
2022-10-25T03:23:20.494Z,13.90
2022-10-25T03:25:49.760Z,13.80
2022-10-25T03:28:19.787Z,13.80
2022-10-25T03:30:47.488Z,13.80
2022-10-25T03:33:15.215Z,13.80
2022-10-25T03:35:43.045Z,13.80
2022-10-25T03:38:10.824Z,13.80
2022-10-25T03:40:39.851Z,13.80
2022-10-25T03:43:07.671Z,13.80
2022-10-25T03:45:35.441Z,13.70
2022-10-25T03:48:03.157Z,13.70
2022-10-25T03:50:30.945Z,13.60
2022-10-25T03:52:58.767Z,13.60
2022-10-25T03:55:26.512Z,13.70
2022-10-25T03:57:55.548Z,13.60
2022-10-25T04:00:23.305Z,13.60
2022-10-25T04:02:59.331Z,13.60
2022-10-25T04:05:30.398Z,13.60
2022-10-25T04:07:58.235Z,13.70
2022-10-25T04:10:26.385Z,13.70
2022-10-25T04:12:55.695Z,13.70
2022-10-25T04:15:23.811Z,13.70
2022-10-25T04:17:52.027Z,13.70
2022-10-25T04:20:20.898Z,13.70
2022-10-25T04:22:54.228Z,13.70
2022-10-25T04:25:22.047Z,13.70
2022-10-25T04:27:49.910Z,13.80
2022-10-25T04:30:19.292Z,13.70
2022-10-25T04:32:47.526Z,13.70
2022-10-25T04:35:15.581Z,13.70
2022-10-25T04:37:43.488Z,13.70
2022-10-25T04:40:12.374Z,13.70
2022-10-25T04:42:40.088Z,13.70
2022-10-25T04:45:08.477Z,13.70
2022-10-25T04:47:37.569Z,13.70
2022-10-25T04:50:10.049Z,13.70
2022-10-25T04:52:37.865Z,13.80
2022-10-25T04:55:06.230Z,13.70
2022-10-25T04:57:33.916Z,13.70
2022-10-25T05:00:01.594Z,13.80
2022-10-25T05:02:29.525Z,13.80
2022-10-25T05:04:58.552Z,13.70
2022-10-25T05:07:26.339Z,13.70
2022-10-25T05:09:54.004Z,13.60
2022-10-25T05:12:23.801Z,13.60
2022-10-25T05:14:51.487Z,13.50
2022-10-25T05:17:19.196Z,13.50
2022-10-25T05:19:46.871Z,13.50
2022-10-25T05:22:15.894Z,13.60
2022-10-25T05:24:43.571Z,13.50
2022-10-25T05:27:11.273Z,13.50
2022-10-25T05:29:38.971Z,13.60
2022-10-25T05:32:06.992Z,13.60
2022-10-25T05:34:34.812Z,13.60
2022-10-25T05:37:02.572Z,13.60
2022-10-25T05:39:31.597Z,13.60
2022-10-25T05:42:00.237Z,13.60
2022-10-25T05:44:27.919Z,13.40
2022-10-25T05:46:55.893Z,13.40
2022-10-25T05:49:23.654Z,13.50
2022-10-25T05:51:51.453Z,13.40
2022-10-25T05:54:19.246Z,13.40
2022-10-25T05:56:48.248Z,13.40
2022-10-25T05:59:16.242Z,13.40
2022-10-25T06:01:45.951Z,13.40
2022-10-25T06:04:14.493Z,13.40
2022-10-25T06:06:43.611Z,13.40
2022-10-25T06:09:12.181Z,13.50
2022-10-25T06:11:40.876Z,13.50
2022-10-25T06:14:11.455Z,13.50
2022-10-25T06:16:39.577Z,13.50
2022-10-25T06:19:07.529Z,13.40
2022-10-25T06:21:35.380Z,13.50
2022-10-25T06:24:04.210Z,13.50
2022-10-25T06:26:32.699Z,13.50
2022-10-25T06:29:01.799Z,13.50
2022-10-25T06:31:31.626Z,13.50
2022-10-25T06:34:00.436Z,13.60
2022-10-25T06:36:28.554Z,13.80
2022-10-25T06:38:56.250Z,13.90
2022-10-25T06:41:27.575Z,14.00
2022-10-25T06:43:55.690Z,14.00
2022-10-25T06:46:25.322Z,14.00
2022-10-25T06:48:56.587Z,14.00
2022-10-25T06:51:25.617Z,14.10
2022-10-25T06:53:55.859Z,14.00
2022-10-25T06:56:23.752Z,14.10
2022-10-25T06:58:51.694Z,14.10
2022-10-25T07:01:21.961Z,14.10
2022-10-25T07:03:53.434Z,14.20
2022-10-25T07:06:26.604Z,14.20
2022-10-25T07:08:55.956Z,14.10
2022-10-25T07:11:25.091Z,14.10
2022-10-25T07:13:52.872Z,14.10
2022-10-25T07:16:21.600Z,14.20
2022-10-25T07:18:50.002Z,14.30
2022-10-25T07:21:20.207Z,14.30
2022-10-25T07:23:50.389Z,14.40
2022-10-25T07:26:20.170Z,14.50
2022-10-25T07:28:49.799Z,14.40
2022-10-25T07:31:19.690Z,14.50
2022-10-25T07:33:47.569Z,14.50
2022-10-25T07:36:15.274Z,14.60
2022-10-25T07:38:42.975Z,14.60
2022-10-25T07:41:12.054Z,14.80
2022-10-25T07:43:39.938Z,14.90
2022-10-25T07:46:08.160Z,15.10
2022-10-25T07:48:35.954Z,15.10
2022-10-25T07:51:04.586Z,15.10
2022-10-25T07:53:32.503Z,15.00
2022-10-25T07:56:00.215Z,15.00
2022-10-25T07:58:29.407Z,15.00
2022-10-25T08:01:01.974Z,15.10
2022-10-25T08:03:29.970Z,15.00
2022-10-25T08:05:57.995Z,15.10
2022-10-25T08:08:25.848Z,15.20
2022-10-25T08:10:54.263Z,15.30
2022-10-25T08:13:22.154Z,15.40
2022-10-25T08:15:55.140Z,15.30
2022-10-25T08:18:23.490Z,15.10
2022-10-25T08:21:06.735Z,15.00
2022-10-25T08:23:35.114Z,15.00
2022-10-25T08:26:03.291Z,15.10
2022-10-25T08:28:31.660Z,15.30
2022-10-25T08:31:01.837Z,15.30
2022-10-25T08:33:29.757Z,15.40
2022-10-25T08:36:00.264Z,15.60
2022-10-25T08:38:27.962Z,15.80
2022-10-25T08:41:00.928Z,16.00
2022-10-25T08:43:49.396Z,16.10
2022-10-25T08:46:22.964Z,16.10
2022-10-25T08:48:55.048Z,16.10
2022-10-25T08:51:27.835Z,16.00
2022-10-25T08:54:01.305Z,15.90
2022-10-25T08:56:30.913Z,15.90
2022-10-25T08:59:02.082Z,15.80
2022-10-25T09:01:37.657Z,15.90
2022-10-25T09:04:05.783Z,16.10
2022-10-25T09:06:38.206Z,16.70
2022-10-25T09:09:23.052Z,17.80
2022-10-25T09:12:02.907Z,18.40
2022-10-25T09:14:39.218Z,18.50
2022-10-25T09:17:17.594Z,18.50
2022-10-25T09:20:03.244Z,18.60
2022-10-25T09:22:32.211Z,18.80
2022-10-25T09:25:03.811Z,19.20
2022-10-25T09:27:36.672Z,20.00
2022-10-25T09:30:07.885Z,19.90
2022-10-25T09:32:40.671Z,19.20
2022-10-25T09:35:16.161Z,18.70
2022-10-25T09:37:48.825Z,18.60
2022-10-25T09:40:20.542Z,18.80
2022-10-25T09:42:53.520Z,18.60
2022-10-25T09:45:25.892Z,18.10
2022-10-25T09:48:02.646Z,17.70
2022-10-25T09:50:33.489Z,17.40
2022-10-25T09:53:12.404Z,17.30
2022-10-25T09:55:47.055Z,17.20
2022-10-25T09:58:19.928Z,17.10
2022-10-25T10:00:47.728Z,17.30
2022-10-25T10:03:16.924Z,17.40
2022-10-25T10:05:49.905Z,17.20
2022-10-25T10:08:17.855Z,17.00
2022-10-25T10:10:47.907Z,16.90
2022-10-25T10:13:20.618Z,16.90
2022-10-25T10:15:57.040Z,16.90
2022-10-25T10:18:31.768Z,16.80
2022-10-25T10:21:06.766Z,16.80
2022-10-25T10:23:38.253Z,16.80
2022-10-25T10:26:13.745Z,16.90
2022-10-25T10:28:46.627Z,17.00
2022-10-25T10:31:14.679Z,17.10
2022-10-25T10:33:49.424Z,17.10
2022-10-25T10:36:26.336Z,17.00
2022-10-25T10:38:54.400Z,16.90
2022-10-25T10:41:27.670Z,16.80
2022-10-25T10:44:09.865Z,16.80
2022-10-25T10:46:37.773Z,17.10
2022-10-25T10:49:06.823Z,17.20
2022-10-25T10:51:45.149Z,17.40
2022-10-25T10:54:27.236Z,17.60
2022-10-25T10:56:57.576Z,17.80
2022-10-25T10:59:30.580Z,17.80
2022-10-25T11:01:58.954Z,17.60
2022-10-25T11:04:28.060Z,17.50
2022-10-25T11:07:14.223Z,17.40
2022-10-25T11:09:41.932Z,17.30
2022-10-25T11:12:14.747Z,17.20
2022-10-25T11:14:42.585Z,17.00
2022-10-25T11:17:16.928Z,17.00
2022-10-25T11:19:58.158Z,17.30
2022-10-25T11:22:39.428Z,17.60
2022-10-25T11:25:20.851Z,18.20
2022-10-25T11:27:59.407Z,18.80
2022-10-25T11:30:34.501Z,19.00
2022-10-25T11:33:31.614Z,18.80
2022-10-25T11:36:16.162Z,18.60
2022-10-25T11:38:56.498Z,18.40
2022-10-25T11:41:33.899Z,18.40
2022-10-25T11:44:35.082Z,18.50
2022-10-25T11:47:09.005Z,18.40
2022-10-25T11:49:56.868Z,18.00
2022-10-25T11:52:53.334Z,17.70
2022-10-25T11:55:32.935Z,17.40
2022-10-25T11:58:11.153Z,17.60
2022-10-25T12:00:51.020Z,18.20
2022-10-25T12:03:27.034Z,18.50
2022-10-25T12:06:04.307Z,18.50
2022-10-25T12:08:43.758Z,18.70
2022-10-25T12:11:17.907Z,19.10
2022-10-25T12:13:50.142Z,19.20
2022-10-25T12:16:20.937Z,19.30
2022-10-25T12:18:51.199Z,19.00
2022-10-25T12:21:22.707Z,18.60
2022-10-25T12:23:54.124Z,18.30
2022-10-25T12:26:30.191Z,18.20
2022-10-25T12:29:00.575Z,18.40
2022-10-25T12:31:30.513Z,18.40
2022-10-25T12:34:03.028Z,18.30
2022-10-25T12:36:36.041Z,18.10
2022-10-25T12:39:13.667Z,17.90
2022-10-25T12:41:45.360Z,17.80
2022-10-25T12:44:33.252Z,17.80
2022-10-25T12:47:25.687Z,17.60
2022-10-25T12:50:14.648Z,17.50
2022-10-25T12:52:58.150Z,17.50
2022-10-25T12:55:52.078Z,17.40
2022-10-25T12:58:38.599Z,17.30
2022-10-25T13:01:24.626Z,17.50
2022-10-25T13:04:32.739Z,17.50
2022-10-25T13:07:01.702Z,17.40
2022-10-25T13:09:33.353Z,17.10
2022-10-25T13:12:05.223Z,17.00
2022-10-25T13:14:35.804Z,16.80
2022-10-25T13:17:40.697Z,16.80
2022-10-25T13:20:45.066Z,16.60
2022-10-25T13:24:02.677Z,16.50
2022-10-25T13:26:55.345Z,16.60
2022-10-25T13:30:03.063Z,16.80
2022-10-25T13:32:33.809Z,17.20
2022-10-25T13:35:03.741Z,17.70
2022-10-25T13:37:45.282Z,17.90
2022-10-25T13:40:23.116Z,18.00
2022-10-25T13:42:59.632Z,18.00
2022-10-25T13:45:40.066Z,17.80
2022-10-25T13:48:28.966Z,17.70
2022-10-25T13:50:58.997Z,17.40
2022-10-25T13:53:32.801Z,17.20
2022-10-25T13:56:06.079Z,17.00
2022-10-25T13:58:48.477Z,16.90
2022-10-25T14:01:56.583Z,16.80
2022-10-25T14:04:38.395Z,16.90
2022-10-25T14:07:44.533Z,16.90
2022-10-25T14:10:20.922Z,16.80
2022-10-25T14:12:50.698Z,16.80
2022-10-25T14:15:30.131Z,16.80
2022-10-25T14:17:59.772Z,16.70
2022-10-25T14:20:30.809Z,16.70
2022-10-25T14:23:01.709Z,16.80
2022-10-25T14:25:37.903Z,16.80
2022-10-25T14:28:14.702Z,16.90
2022-10-25T14:30:44.832Z,17.00
2022-10-25T14:33:29.542Z,17.00
2022-10-25T14:36:08.121Z,17.30
2022-10-25T14:38:49.662Z,17.50
2022-10-25T14:41:21.893Z,17.70
2022-10-25T14:43:49.687Z,17.80
2022-10-25T14:46:18.810Z,17.70
2022-10-25T14:48:48.341Z,17.70
2022-10-25T14:51:22.022Z,17.50
2022-10-25T14:53:53.820Z,17.50
2022-10-25T14:56:24.798Z,17.50
2022-10-25T14:58:52.774Z,17.40
2022-10-25T15:01:22.721Z,17.30
2022-10-25T15:03:52.864Z,17.20
2022-10-25T15:06:26.027Z,17.10
2022-10-25T15:09:16.142Z,16.90
2022-10-25T15:12:05.221Z,16.80
2022-10-25T15:14:33.373Z,16.60
2022-10-25T15:17:05.979Z,16.40
2022-10-25T15:19:33.686Z,16.30
2022-10-25T15:22:10.826Z,16.20
2022-10-25T15:24:46.116Z,16.10
2022-10-25T15:27:27.945Z,15.90
2022-10-25T15:29:55.778Z,15.80
2022-10-25T15:32:26.416Z,15.70
2022-10-25T15:34:56.228Z,15.60
2022-10-25T15:37:27.217Z,15.50
2022-10-25T15:39:56.422Z,15.30
2022-10-25T15:42:26.306Z,15.30
2022-10-25T15:44:54.622Z,15.20
2022-10-25T15:47:30.154Z,15.10
2022-10-25T15:50:15.097Z,15.10
2022-10-25T15:52:43.368Z,15.10
2022-10-25T15:55:19.547Z,15.00
2022-10-25T15:57:47.858Z,14.90
2022-10-25T16:00:16.946Z,14.70
2022-10-25T16:02:45.497Z,14.70
2022-10-25T16:05:20.903Z,14.60
2022-10-25T16:07:48.829Z,14.60
2022-10-25T16:10:17.364Z,14.50
2022-10-25T16:12:49.185Z,14.50
2022-10-25T16:15:19.167Z,14.50
2022-10-25T16:17:48.686Z,14.40
2022-10-25T16:20:21.310Z,14.30
2022-10-25T16:22:50.415Z,14.30
2022-10-25T16:25:19.615Z,14.20
2022-10-25T16:27:48.415Z,14.10
2022-10-25T16:30:18.574Z,14.00
2022-10-25T16:32:46.760Z,13.80
2022-10-25T16:35:15.837Z,13.70
2022-10-25T16:37:45.087Z,13.60
2022-10-25T16:40:16.142Z,13.40
2022-10-25T16:42:44.136Z,13.40
2022-10-25T16:45:18.007Z,13.30
2022-10-25T16:47:45.753Z,13.20
2022-10-25T16:50:13.584Z,13.10
2022-10-25T16:52:41.356Z,13.10
2022-10-25T16:55:11.600Z,13.10
2022-10-25T16:57:39.424Z,13.00
2022-10-25T17:00:08.301Z,12.90
2022-10-25T17:02:36.161Z,12.90
2022-10-25T17:05:03.934Z,12.80
2022-10-25T17:07:31.780Z,12.80
2022-10-25T17:09:59.674Z,12.70
2022-10-25T17:12:28.731Z,12.70
2022-10-25T17:14:56.425Z,12.60
2022-10-25T17:17:24.338Z,12.60
2022-10-25T17:19:52.184Z,12.50
2022-10-25T17:22:20.667Z,12.40
2022-10-25T17:24:48.387Z,12.40
2022-10-25T17:27:16.171Z,12.40
2022-10-25T17:29:45.198Z,12.40
2022-10-25T17:32:12.954Z,12.30
2022-10-25T17:34:40.629Z,12.30
2022-10-25T17:37:08.346Z,12.30
2022-10-25T17:39:36.058Z,12.30
2022-10-25T17:42:03.770Z,12.30
2022-10-25T17:44:31.486Z,12.30
2022-10-25T17:47:03.002Z,12.30
2022-10-25T17:49:31.028Z,12.20
2022-10-25T17:51:58.786Z,12.20
2022-10-25T17:54:26.637Z,12.10
2022-10-25T17:56:58.441Z,12.10
2022-10-25T17:59:27.769Z,12.20
2022-10-25T18:01:55.682Z,12.20
2022-10-25T18:04:25.506Z,12.10
2022-10-25T18:06:53.266Z,12.10
2022-10-25T18:09:22.748Z,12.10
2022-10-25T18:11:50.573Z,12.00
2022-10-25T18:14:18.434Z,12.00
2022-10-25T18:16:46.278Z,12.00
2022-10-25T18:19:15.306Z,11.90
2022-10-25T18:21:44.398Z,12.00
2022-10-25T18:24:14.192Z,11.90
2022-10-25T18:26:42.057Z,11.90
2022-10-25T18:29:10.888Z,11.90
2022-10-25T18:31:38.614Z,11.80
2022-10-25T18:34:06.510Z,11.80
2022-10-25T18:36:34.297Z,11.80
2022-10-25T18:39:03.404Z,11.90
2022-10-25T18:41:32.917Z,11.80
2022-10-25T18:44:02.326Z,11.80
2022-10-25T18:46:31.942Z,11.80
2022-10-25T18:48:59.720Z,11.80
2022-10-25T18:51:29.205Z,11.80
2022-10-25T18:53:57.678Z,11.80
2022-10-25T18:56:26.997Z,11.80
2022-10-25T18:58:56.800Z,11.70
2022-10-25T19:01:27.955Z,11.50
2022-10-25T19:03:57.690Z,11.30
2022-10-25T19:06:26.289Z,11.30
2022-10-25T19:08:54.485Z,11.20
2022-10-25T19:11:22.429Z,11.00
2022-10-25T19:13:55.256Z,10.90
2022-10-25T19:16:23.573Z,10.80
2022-10-25T19:18:51.661Z,10.70
2022-10-25T19:21:20.043Z,10.60
2022-10-25T19:23:48.534Z,10.50
2022-10-25T19:26:19.517Z,10.60
2022-10-25T19:28:48.350Z,10.60
2022-10-25T19:31:18.717Z,10.50
2022-10-25T19:33:47.240Z,10.50
2022-10-25T19:36:15.806Z,10.50
2022-10-25T19:38:45.056Z,10.60
2022-10-25T19:41:15.977Z,10.70
2022-10-25T19:43:43.723Z,10.60
2022-10-25T19:46:13.161Z,10.60
2022-10-25T19:48:43.146Z,10.50
2022-10-25T19:51:12.331Z,10.40
2022-10-25T19:53:40.556Z,10.40
2022-10-25T19:56:10.753Z,10.40
2022-10-25T19:58:38.597Z,10.30
2022-10-25T20:01:08.793Z,10.40
2022-10-25T20:03:37.467Z,10.40
2022-10-25T20:06:09.675Z,10.40
2022-10-25T20:08:39.456Z,10.40
2022-10-25T20:11:08.466Z,10.50
2022-10-25T20:13:36.197Z,10.50
2022-10-25T20:16:04.245Z,10.70
2022-10-25T20:18:34.225Z,10.80
2022-10-25T20:21:03.991Z,10.80
2022-10-25T20:23:33.155Z,10.80
2022-10-25T20:26:01.020Z,10.70
2022-10-25T20:28:28.691Z,10.60
2022-10-25T20:31:03.278Z,10.50
2022-10-25T20:33:31.006Z,10.50
2022-10-25T20:36:02.561Z,10.40
2022-10-25T20:38:30.868Z,10.40
2022-10-25T20:41:05.218Z,10.40
2022-10-25T20:43:33.664Z,10.50
2022-10-25T20:46:01.778Z,10.50
2022-10-25T20:48:29.731Z,10.30
2022-10-25T20:50:58.011Z,10.30
2022-10-25T20:53:25.834Z,10.20
2022-10-25T20:55:53.547Z,10.10
2022-10-25T20:58:23.872Z,10.00
2022-10-25T21:00:54.665Z,10.10
2022-10-25T21:03:22.913Z,10.00
2022-10-25T21:05:53.492Z,10.00
2022-10-25T21:08:22.877Z,10.10
2022-10-25T21:10:54.641Z,10.00
2022-10-25T21:13:23.744Z,10.00
2022-10-25T21:15:52.139Z,9.90
2022-10-25T21:18:20.622Z,9.90
2022-10-25T21:20:49.296Z,9.80
2022-10-25T21:23:17.000Z,9.90
2022-10-25T21:25:44.701Z,9.90
2022-10-25T21:28:12.414Z,10.00
2022-10-25T21:30:41.417Z,10.10
2022-10-25T21:33:09.106Z,10.10
2022-10-25T21:35:36.780Z,10.00
2022-10-25T21:38:04.463Z,10.00
2022-10-25T21:40:32.134Z,9.90
2022-10-25T21:42:59.822Z,10.00
2022-10-25T21:45:27.571Z,9.90
2022-10-25T21:47:56.607Z,9.90
2022-10-25T21:50:24.416Z,9.80
2022-10-25T21:52:53.923Z,9.80
2022-10-25T21:55:21.635Z,9.70
2022-10-25T21:57:53.257Z,9.70
2022-10-25T22:00:22.055Z,9.70
2022-10-25T22:02:49.743Z,9.60
2022-10-25T22:05:18.811Z,9.70
2022-10-25T22:07:46.727Z,9.80
2022-10-25T22:10:14.896Z,9.80
2022-10-25T22:12:42.572Z,9.80
2022-10-25T22:15:10.686Z,9.80
2022-10-25T22:17:38.375Z,9.80
2022-10-25T22:20:07.507Z,9.70
2022-10-25T22:22:36.536Z,9.70
2022-10-25T22:25:04.491Z,9.60
2022-10-25T22:27:32.240Z,9.60
2022-10-25T22:29:59.954Z,9.70
2022-10-25T22:32:27.955Z,9.70
2022-10-25T22:34:55.638Z,9.80
2022-10-25T22:37:23.331Z,9.80
2022-10-25T22:39:52.326Z,9.70
2022-10-25T22:42:20.023Z,9.80
2022-10-25T22:44:47.694Z,9.80
2022-10-25T22:47:15.388Z,9.80
2022-10-25T22:49:43.174Z,9.70
2022-10-25T22:52:11.431Z,9.70
2022-10-25T22:54:39.103Z,9.70
2022-10-25T22:57:08.148Z,9.60
2022-10-25T22:59:35.845Z,9.60
2022-10-25T23:02:03.547Z,9.60
2022-10-25T23:04:31.277Z,9.60
2022-10-25T23:06:59.039Z,9.60
2022-10-25T23:11:55.316Z,9.40
2022-10-25T23:14:24.434Z,9.30
2022-10-25T23:16:52.136Z,9.30
2022-10-25T23:19:19.817Z,9.30
2022-10-25T23:21:47.749Z,9.40
2022-10-25T23:24:15.438Z,9.30
2022-10-25T23:26:43.195Z,9.30
2022-10-25T23:29:12.668Z,9.20
2022-10-25T23:31:41.703Z,9.10
2022-10-25T23:34:09.559Z,9.10
2022-10-25T23:36:38.191Z,9.00
2022-10-25T23:39:07.847Z,9.00
2022-10-25T23:41:35.675Z,8.90
2022-10-25T23:44:03.430Z,8.80
2022-10-25T23:46:31.150Z,8.70
2022-10-25T23:49:00.178Z,8.90
2022-10-25T23:51:27.883Z,8.90
2022-10-25T23:53:55.571Z,8.80
2022-10-25T23:56:23.288Z,8.70
2022-10-25T23:58:53.690Z,8.70
